Terminal Aerodrome Forecast
Issued by NWS Blacksburg, VA

Current Version | Previous Version | Text Only | Print | Product List | Glossary Off
Versions: 1 2 3 4 5 6 7 8 9 10 11 12 13 14 15 16 17 18 19 20 21 22 23 24 25 26 27 28 29 30 31 32

438
FTUS41 KRNK 280600 RRA
TAFBLF
TAF
KBLF 280600Z 2806/2906 27004KT 6SM BR SCT010
     FM280800 00000KT 4SM BR BKN035
      TEMPO 2808/2812 1 1/2SM BR SCT003
     FM281200 25004KT P6SM FEW030
     FM281800 20007KT P6SM SCT250=

USA.gov is the U.S. government's official web portal to all federal, state and local government web resources and services.